Aigle Des Mers — FO4883 — position and weather

sailwx.info

Track history (hours):
 
Tides and Currents Weather Stations Pressure Air Temp Water Temp Dewpoint Dewpoint Depression Visibility Wind Speed Wind Dir Waves Ship Positions

Aigle Des Mers

Last reported at 2016-Jul-21 03:33 UTC. Time now 2016-Jul-24 04:58 UTC.
Position N 48°06' W 004°19'.

Type: Fishing. MMSI: 227318010.

Date/timePositionNaut miles runAvg speedWind from/ knotsBaromVisibWave heightAir tempDewpointWater temp
2016-Jul-21 03:33N 48°06' W 004°19'0 0.1
2016-Jul-21 02:34N 48°06' W 004°19'3 2.7
2016-Jul-21 01:34N 48°07' W 004°23'9 9.2
2016-Jul-21 00:33N 48°10' W 004°36'8 7.9
2016-Jul-20 23:34N 48°14' W 004°46'5 4.8
2016-Jul-20 22:33N 48°18' W 004°51'0 0.2
2016-Jul-20 21:33N 48°18' W 004°51'2 2.0
2016-Jul-20 20:33N 48°16' W 004°50'6 6.4
2016-Jul-20 19:33N 48°12' W 004°43'9 9.2
2016-Jul-20 18:33N 48°09' W 004°30'7 7.3
2016-Jul-20 17:34N 48°06' W 004°20'0 0.0
2016-Jul-20 04:34N 48°06' W 004°20'3 2.9
2016-Jul-20 03:33N 48°08' W 004°23'5 5.1
2016-Jul-20 02:33N 48°07' W 004°30'1 0.9
2016-Jul-20 01:34N 48°08' W 004°31'1 1.0
2016-Jul-20 00:34N 48°08' W 004°32'6 5.6
2016-Jul-19 23:34N 48°12' W 004°38'6 5.6
2016-Jul-19 22:34N 48°12' W 004°46'2 2.1
2016-Jul-19 21:34N 48°12' W 004°43'1 1.2
2016-Jul-19 20:34N 48°12' W 004°42'7 7.0
2016-Jul-19 19:33N 48°09' W 004°32'9 8.7
2016-Jul-19 18:33N 48°07' W 004°20'3 0.2
2016-Jul-19 04:33N 48°07' W 004°24'6 5.8
2016-Jul-19 03:32N 48°08' W 004°33'4 3.7
2016-Jul-19 02:33N 48°09' W 004°38'6 5.9
2016-Jul-19 01:33N 48°12' W 004°45'2 2.1
2016-Jul-19 00:34N 48°13' W 004°48'1 1.1
2016-Jul-18 23:33N 48°12' W 004°50'6 6.0
2016-Jul-18 22:33N 48°10' W 004°42'1 1.4
2016-Jul-18 21:34N 48°09' W 004°40'2 1.8
2016-Jul-18 20:34N 48°10' W 004°38'5 5.0
2016-Jul-18 19:33N 48°09' W 004°30'6 5.9
2016-Jul-18 18:32N 48°08' W 004°21'  
2016-Jul-15 05:34N 48°06' W 004°19'1 1.5
2016-Jul-15 04:33N 48°07' W 004°21'4 3.7
2016-Jul-15 03:34N 48°07' W 004°27'2 2.4
2016-Jul-15 02:34N 48°07' W 004°30'1 1.3
2016-Jul-15 01:33N 48°08' W 004°31'0 0.5
2016-Jul-15 00:34N 48°08' W 004°32'6 6.0
2016-Jul-14 23:33N 48°09' W 004°41'0 0.1
2016-Jul-14 22:33N 48°09' W 004°41'6 5.6
2016-Jul-14 21:34N 48°14' W 004°37'6 5.6
2016-Jul-14 20:34N 48°12' W 004°44'8 8.3
2016-Jul-14 19:34N 48°09' W 004°32'8 8.3
2016-Jul-14 18:33N 48°06' W 004°20'0 0.0
2016-Jul-12 23:33N 48°07' W 004°20'6 6.4
2016-Jul-12 22:34N 48°07' W 004°29'7 7.4
2016-Jul-12 21:34N 48°07' W 004°40'3 3.3
2016-Jul-12 20:33N 48°10' W 004°40'8 8.1
2016-Jul-12 19:33N 48°08' W 004°28'6 0.3
2016-Jul-12 01:25N 48°06' W 004°19'6 6.7
2016-Jul-12 00:34N 48°10' W 004°26'1 1.3
2016-Jul-11 23:33N 48°10' W 004°24'4 3.9
2016-Jul-11 22:34N 48°09' W 004°29'6 5.8
2016-Jul-11 21:34N 48°10' W 004°38'1 0.7
2016-Jul-11 20:34N 48°10' W 004°38'3 3.0
2016-Jul-11 19:34N 48°09' W 004°34'8 7.6
2016-Jul-11 18:33N 48°08' W 004°23'  
Track history (hours):
 
Tides and Currents Weather Stations Pressure Air Temp Water Temp Dewpoint Dewpoint Depression Visibility Wind Speed Wind Dir Waves Ship Positions

Aigle Des Mers

Last reported at 2016-Jul-21 03:33 UTC. Time now 2016-Jul-24 04:58 UTC.
Position N 48°06' W 004°19'.

Type: Fishing. MMSI: 227318010.

Date/timePositionNaut miles runAvg speedWind from/ knotsBaromVisibWave heightAir tempDewpointWater temp
2016-Jul-21 03:33N 48°06' W 004°19'0 0.1
2016-Jul-21 02:34N 48°06' W 004°19'3 2.7
2016-Jul-21 01:34N 48°07' W 004°23'9 9.2
2016-Jul-21 00:33N 48°10' W 004°36'8 7.9
2016-Jul-20 23:34N 48°14' W 004°46'5 4.8
2016-Jul-20 22:33N 48°18' W 004°51'0 0.2
2016-Jul-20 21:33N 48°18' W 004°51'2 2.0
2016-Jul-20 20:33N 48°16' W 004°50'6 6.4
2016-Jul-20 19:33N 48°12' W 004°43'9 9.2
2016-Jul-20 18:33N 48°09' W 004°30'7 7.3
2016-Jul-20 17:34N 48°06' W 004°20'0 0.0
2016-Jul-20 04:34N 48°06' W 004°20'3 2.9
2016-Jul-20 03:33N 48°08' W 004°23'5 5.1
2016-Jul-20 02:33N 48°07' W 004°30'1 0.9
2016-Jul-20 01:34N 48°08' W 004°31'1 1.0
2016-Jul-20 00:34N 48°08' W 004°32'6 5.6
2016-Jul-19 23:34N 48°12' W 004°38'6 5.6
2016-Jul-19 22:34N 48°12' W 004°46'2 2.1
2016-Jul-19 21:34N 48°12' W 004°43'1 1.2
2016-Jul-19 20:34N 48°12' W 004°42'7 7.0
2016-Jul-19 19:33N 48°09' W 004°32'9 8.7
2016-Jul-19 18:33N 48°07' W 004°20'3 0.2
2016-Jul-19 04:33N 48°07' W 004°24'6 5.8
2016-Jul-19 03:32N 48°08' W 004°33'4 3.7
2016-Jul-19 02:33N 48°09' W 004°38'6 5.9
2016-Jul-19 01:33N 48°12' W 004°45'2 2.1
2016-Jul-19 00:34N 48°13' W 004°48'1 1.1
2016-Jul-18 23:33N 48°12' W 004°50'6 6.0
2016-Jul-18 22:33N 48°10' W 004°42'1 1.4
2016-Jul-18 21:34N 48°09' W 004°40'2 1.8
2016-Jul-18 20:34N 48°10' W 004°38'5 5.0
2016-Jul-18 19:33N 48°09' W 004°30'6 5.9
2016-Jul-18 18:32N 48°08' W 004°21'  
2016-Jul-15 05:34N 48°06' W 004°19'1 1.5
2016-Jul-15 04:33N 48°07' W 004°21'4 3.7
2016-Jul-15 03:34N 48°07' W 004°27'2 2.4
2016-Jul-15 02:34N 48°07' W 004°30'1 1.3
2016-Jul-15 01:33N 48°08' W 004°31'0 0.5
2016-Jul-15 00:34N 48°08' W 004°32'6 6.0
2016-Jul-14 23:33N 48°09' W 004°41'0 0.1
2016-Jul-14 22:33N 48°09' W 004°41'6 5.6
2016-Jul-14 21:34N 48°14' W 004°37'6 5.6
2016-Jul-14 20:34N 48°12' W 004°44'8 8.3
2016-Jul-14 19:34N 48°09' W 004°32'8 8.3
2016-Jul-14 18:33N 48°06' W 004°20'0 0.0
2016-Jul-12 23:33N 48°07' W 004°20'6 6.4
2016-Jul-12 22:34N 48°07' W 004°29'7 7.4
2016-Jul-12 21:34N 48°07' W 004°40'3 3.3
2016-Jul-12 20:33N 48°10' W 004°40'8 8.1
2016-Jul-12 19:33N 48°08' W 004°28'6 0.3
2016-Jul-12 01:25N 48°06' W 004°19'6 6.7
2016-Jul-12 00:34N 48°10' W 004°26'1 1.3
2016-Jul-11 23:33N 48°10' W 004°24'4 3.9
2016-Jul-11 22:34N 48°09' W 004°29'6 5.8
2016-Jul-11 21:34N 48°10' W 004°38'1 0.7
2016-Jul-11 20:34N 48°10' W 004°38'3 3.0
2016-Jul-11 19:34N 48°09' W 004°34'8 7.6
2016-Jul-11 18:33N 48°08' W 004°23'  

Dump ship's entire track history